Time;durP1;ratioP1;P1;durP2;ratioP2;P2;SDS_P1;SDS_P2;PMS_P1;PMS_P2;Temp;Humidity;BMP_temperature;BMP_pressure;BME280_temperature;BME280_humidity;BME280_pressure;Samples;Min_cycle;Max_cycle;Signal;HPM_P1;HPM_P2
2023/08/17 00:02:13;;;;;;;9.77;8.97;;;21.30;99.90;;;;;;6340677;22;20171;-45
2023/08/17 00:04:39;;;;;;;10.70;9.70;;;21.20;99.90;;;;;;6338993;22;20147;-45
2023/08/17 00:07:05;;;;;;;8.90;8.10;;;21.10;99.90;;;;;;6339051;22;20425;-45
2023/08/17 00:09:31;;;;;;;10.23;9.37;;;21.00;99.90;;;;;;6338057;22;20377;-45
2023/08/17 00:11:57;;;;;;;11.23;10.13;;;20.90;99.90;;;;;;6337173;22;20454;-46
2023/08/17 00:14:23;;;;;;;8.63;7.90;;;20.90;99.90;;;;;;6338744;22;20413;-45
2023/08/17 00:16:52;;;;;;;9.83;8.90;;;20.80;99.90;;;;;;6339031;22;20147;-45
2023/08/17 00:19:17;;;;;;;9.53;8.73;;;20.90;99.90;;;;;;6339250;22;20178;-45
2023/08/17 00:21:45;;;;;;;9.33;8.43;;;20.90;99.90;;;;;;6339439;22;20713;-45
2023/08/17 00:24:11;;;;;;;14.93;9.10;;;20.90;99.90;;;;;;6337415;22;20155;-45
2023/08/17 00:26:37;;;;;;;9.60;8.80;;;20.90;99.90;;;;;;6340816;22;20441;-45
2023/08/17 00:29:03;;;;;;;9.00;8.20;;;20.90;99.90;;;;;;6340661;22;20397;-46
2023/08/17 00:31:29;;;;;;;9.77;8.90;;;20.90;99.90;;;;;;6311898;22;20397;-46
2023/08/17 00:33:55;;;;;;;8.97;7.87;;;20.90;99.90;;;;;;6311039;22;20713;-46
2023/08/17 00:36:20;;;;;;;9.53;8.43;;;20.90;99.90;;;;;;6337937;22;20447;-46
2023/08/17 00:38:46;;;;;;;9.17;8.27;;;20.90;99.90;;;;;;6337941;22;20565;-46
2023/08/17 00:41:12;;;;;;;9.27;8.33;;;20.90;99.90;;;;;;6339511;22;20542;-46
2023/08/17 00:43:37;;;;;;;9.37;8.57;;;20.90;99.90;;;;;;6338581;22;20155;-46
2023/08/17 00:46:03;;;;;;;9.10;8.30;;;20.90;99.90;;;;;;6338399;22;20154;-46
2023/08/17 00:48:29;;;;;;;7.20;6.70;;;20.90;99.90;;;;;;6338792;22;20242;-46
2023/08/17 00:50:56;;;;;;;8.77;7.30;;;20.90;99.90;;;;;;6339315;22;20361;-46
2023/08/17 00:53:22;;;;;;;10.70;8.47;;;20.80;99.90;;;;;;6337852;22;20378;-46
2023/08/17 00:55:47;;;;;;;8.67;7.97;;;20.80;99.90;;;;;;6339550;22;20388;-46
2023/08/17 00:58:14;;;;;;;8.60;7.80;;;20.80;99.90;;;;;;6335389;22;20381;-46
2023/08/17 01:00:40;;;;;;;8.47;7.73;;;20.70;99.90;;;;;;6338754;22;20375;-46
2023/08/17 01:03:06;;;;;;;8.67;7.97;;;20.70;99.90;;;;;;6339646;22;20857;-46
2023/08/17 01:05:32;;;;;;;8.63;7.93;;;20.70;99.90;;;;;;6339327;22;20377;-46
2023/08/17 01:07:58;;;;;;;7.93;7.33;;;20.70;99.90;;;;;;6338130;22;20454;-46
2023/08/17 01:10:46;;;;;;;7.97;7.37;;;20.60;99.90;;;;;;6339340;22;20420;-46
2023/08/17 01:13:16;;;;;;;8.37;7.70;;;20.70;99.90;;;;;;6339964;22;20441;-46
2023/08/17 01:15:46;;;;;;;11.10;8.80;;;20.70;99.90;;;;;;6340705;22;20354;-45
2023/08/17 01:18:23;;;;;;;8.37;7.67;;;20.70;99.90;;;;;;6340355;22;20357;-46
2023/08/17 01:20:49;;;;;;;8.90;8.13;;;20.70;99.90;;;;;;6342005;22;20385;-46
2023/08/17 01:23:15;;;;;;;7.83;6.50;;;20.70;99.90;;;;;;6342191;22;20435;-46
2023/08/17 01:25:40;;;;;;;9.33;7.10;;;20.70;99.90;;;;;;6340596;22;20826;-46
2023/08/17 01:28:06;;;;;;;7.40;6.80;;;20.70;99.90;;;;;;6341604;22;20454;-46
2023/08/17 01:30:56;;;;;;;8.83;8.03;;;20.70;99.90;;;;;;6342162;22;20127;-46
2023/08/17 01:33:31;;;;;;;9.03;8.23;;;20.70;99.90;;;;;;6281085;22;20385;-46
2023/08/17 01:36:00;;;;;;;7.53;6.77;;;20.60;99.90;;;;;;6339759;22;20780;-46
2023/08/17 01:38:27;;;;;;;7.73;6.87;;;20.60;99.90;;;;;;6340238;22;20492;-46
2023/08/17 01:40:53;;;;;;;7.90;7.20;;;20.60;99.90;;;;;;6339159;22;20687;-46
2023/08/17 01:43:20;;;;;;;8.10;7.30;;;20.60;99.90;;;;;;6338145;22;20405;-46
2023/08/17 01:45:46;;;;;;;7.90;7.30;;;20.60;99.90;;;;;;6337991;22;20389;-46
2023/08/17 01:48:11;;;;;;;10.13;8.20;;;20.60;99.90;;;;;;6341396;22;20808;-46
2023/08/17 01:50:37;;;;;;;8.00;7.20;;;20.60;99.90;;;;;;6342513;22;20411;-46
2023/08/17 01:53:03;;;;;;;8.07;7.27;;;20.60;99.90;;;;;;6342658;22;20183;-46
2023/08/17 01:55:28;;;;;;;9.00;8.20;;;20.70;99.90;;;;;;6342550;22;20154;-46
2023/08/17 01:57:54;;;;;;;10.00;9.20;;;20.70;99.90;;;;;;6340427;22;20238;-46
2023/08/17 02:00:19;;;;;;;9.27;8.50;;;20.60;99.90;;;;;;6340923;22;20220;-46
2023/08/17 02:02:45;;;;;;;8.80;8.10;;;20.50;99.90;;;;;;6341841;22;20182;-46
2023/08/17 02:05:11;;;;;;;9.07;8.27;;;20.50;99.90;;;;;;6341942;22;20151;-46
2023/08/17 02:07:36;;;;;;;8.20;7.50;;;20.50;99.90;;;;;;6339880;22;20182;-46
2023/08/17 02:10:02;;;;;;;9.60;8.80;;;20.50;99.90;;;;;;6340454;22;20147;-46
2023/08/17 02:12:28;;;;;;;7.93;7.33;;;20.40;99.90;;;;;;6339925;22;20128;-46
2023/08/17 02:14:54;;;;;;;9.50;8.70;;;20.40;99.90;;;;;;6338198;22;20839;-46
2023/08/17 02:17:21;;;;;;;9.20;8.50;;;20.50;99.90;;;;;;6341087;22;20163;-46
2023/08/17 02:19:47;;;;;;;9.70;8.90;;;20.40;99.90;;;;;;6340288;22;20163;-46
2023/08/17 02:22:13;;;;;;;9.00;8.10;;;20.40;99.90;;;;;;6339713;22;20832;-45
2023/08/17 02:24:39;;;;;;;8.83;8.13;;;20.40;99.90;;;;;;6338303;22;20362;-46
2023/08/17 02:27:04;;;;;;;9.47;7.87;;;20.40;99.90;;;;;;6339828;22;20736;-46
2023/08/17 02:29:30;;;;;;;9.20;8.47;;;20.50;99.90;;;;;;6340352;22;20229;-46
2023/08/17 02:31:56;;;;;;;10.23;9.30;;;20.50;99.90;;;;;;6341483;22;20246;-46
2023/08/17 02:34:21;;;;;;;9.30;8.50;;;20.60;99.90;;;;;;6339154;22;20148;-46
2023/08/17 02:36:47;;;;;;;8.67;7.97;;;20.60;99.90;;;;;;6337185;22;20147;-46
2023/08/17 02:39:13;;;;;;;7.53;6.80;;;20.60;99.90;;;;;;6339651;22;20132;-46
2023/08/17 02:41:39;;;;;;;9.27;8.40;;;20.60;99.90;;;;;;6342376;22;20143;-45
2023/08/17 02:44:04;;;;;;;9.27;8.47;;;20.70;99.90;;;;;;6340510;22;20212;-45
2023/08/17 02:46:30;;;;;;;9.03;8.17;;;20.70;99.90;;;;;;6341290;22;20400;-45
2023/08/17 02:48:56;;;;;;;9.00;8.10;;;20.70;99.90;;;;;;6338669;22;20570;-45
2023/08/17 02:51:21;;;;;;;9.67;8.87;;;20.70;99.90;;;;;;6339874;22;20138;-45
2023/08/17 02:53:47;;;;;;;9.00;8.10;;;20.70;99.90;;;;;;6341363;22;20170;-45
2023/08/17 02:56:13;;;;;;;13.13;8.30;;;20.70;99.90;;;;;;6341431;22;20238;-45
2023/08/17 02:58:40;;;;;;;10.33;9.33;;;20.70;99.90;;;;;;6340761;22;20208;-45
2023/08/17 03:01:09;;;;;;;10.10;9.30;;;20.70;99.90;;;;;;6339484;22;20254;-45
2023/08/17 03:03:35;;;;;;;9.23;8.37;;;20.70;99.90;;;;;;6336754;22;20458;-45
2023/08/17 03:06:02;;;;;;;11.50;10.40;;;20.70;99.90;;;;;;6337641;22;20350;-45
2023/08/17 03:08:28;;;;;;;9.80;8.90;;;20.70;99.90;;;;;;6338821;22;20497;-45
2023/08/17 03:10:53;;;;;;;14.13;12.73;;;20.60;99.90;;;;;;6338919;22;20377;-45
2023/08/17 03:13:19;;;;;;;15.00;12.00;;;20.50;99.90;;;;;;6337258;22;20186;-46
2023/08/17 03:15:44;;;;;;;12.73;11.43;;;20.50;99.90;;;;;;6337618;22;20404;-45
2023/08/17 03:18:10;;;;;;;14.13;11.80;;;20.50;99.90;;;;;;6338138;22;20140;-45
2023/08/17 03:20:36;;;;;;;13.67;12.30;;;20.50;99.90;;;;;;6339409;22;20204;-45
2023/08/17 03:23:01;;;;;;;18.30;16.57;;;20.50;99.90;;;;;;6339178;22;20575;-45
2023/08/17 03:25:27;;;;;;;17.23;15.63;;;20.50;99.90;;;;;;6339267;22;20207;-45
2023/08/17 03:27:53;;;;;;;15.70;13.57;;;20.50;99.90;;;;;;6340140;22;20204;-45
2023/08/17 03:30:18;;;;;;;15.50;13.90;;;20.40;99.90;;;;;;6340769;22;20134;-45
2023/08/17 03:32:44;;;;;;;16.53;13.47;;;20.40;99.90;;;;;;6341957;22;20147;-45
2023/08/17 03:35:09;;;;;;;20.20;15.67;;;20.30;99.90;;;;;;6341721;22;20522;-45
2023/08/17 03:37:35;;;;;;;20.60;16.70;;;20.30;99.90;;;;;;6339725;22;20148;-45
2023/08/17 03:40:01;;;;;;;17.60;15.80;;;20.10;1.00;;;;;;6337821;22;20212;-45
2023/08/17 03:42:27;;;;;;;18.83;16.93;;;20.00;1.00;;;;;;6338873;22;20158;-45
2023/08/17 03:44:52;;;;;;;16.40;14.73;;;19.90;1.00;;;;;;6339455;22;20448;-45
2023/08/17 03:47:18;;;;;;;16.40;14.73;;;19.80;1.00;;;;;;6339904;22;20171;-45
2023/08/17 03:49:44;;;;;;;11.53;10.40;;;19.80;1.00;;;;;;6340684;22;20162;-45
2023/08/17 03:52:10;;;;;;;13.70;12.30;;;19.80;1.00;;;;;;6339290;22;20389;-45
2023/08/17 03:54:36;;;;;;;13.87;12.47;;;19.90;1.00;;;;;;6340163;22;20365;-46
2023/08/17 03:57:02;;;;;;;16.17;13.33;;;20.00;1.00;;;;;;6338817;22;20817;-45
2023/08/17 03:59:28;;;;;;;14.00;12.57;;;20.10;1.00;;;;;;6341294;22;20166;-45
2023/08/17 04:01:53;;;;;;;14.10;12.50;;;20.10;1.00;;;;;;6339829;22;20766;-41
2023/08/17 04:04:19;;;;;;;17.70;15.80;;;20.10;1.00;;;;;;6339221;22;20197;-41
2023/08/17 04:06:45;;;;;;;16.23;14.53;;;20.10;1.00;;;;;;6337214;22;20485;-41
2023/08/17 04:09:11;;;;;;;16.10;12.87;;;20.00;1.00;;;;;;6336381;22;20131;-43
2023/08/17 04:11:36;;;;;;;13.23;11.87;;;20.00;1.00;;;;;;6338355;22;20147;-43
2023/08/17 04:14:03;;;;;;;13.43;12.13;;;20.10;1.00;;;;;;6337857;22;20425;-41
2023/08/17 04:16:29;;;;;;;11.80;9.73;;;20.20;1.00;;;;;;6338403;22;20147;-41
2023/08/17 04:18:54;;;;;;;14.73;12.63;;;20.30;1.00;;;;;;6336404;22;20803;-41
2023/08/17 04:21:20;;;;;;;13.87;12.47;;;20.40;1.00;;;;;;6337135;22;20574;-39
2023/08/17 04:23:46;;;;;;;16.93;15.23;;;20.40;99.90;;;;;;6336846;22;20147;-40
2023/08/17 04:26:11;;;;;;;16.17;14.67;;;20.50;99.90;;;;;;6335115;22;20168;-41
2023/08/17 04:28:37;;;;;;;13.37;11.97;;;20.40;99.90;;;;;;6335086;22;20189;-40
2023/08/17 04:31:03;;;;;;;13.60;12.23;;;20.40;99.90;;;;;;6335609;22;20147;-40
2023/08/17 04:33:28;;;;;;;14.10;12.67;;;20.40;99.90;;;;;;6337058;22;20139;-43
2023/08/17 04:35:54;;;;;;;14.90;12.77;;;20.50;99.90;;;;;;6339518;22;20158;-40
2023/08/17 04:38:20;;;;;;;12.97;11.80;;;20.50;99.90;;;;;;6336410;22;20163;-41
2023/08/17 04:40:46;;;;;;;15.80;14.20;;;20.50;99.90;;;;;;6339897;22;20671;-42
2023/08/17 04:43:11;;;;;;;14.03;12.53;;;20.50;99.90;;;;;;6339093;22;20147;-42
2023/08/17 04:45:37;;;;;;;14.63;13.33;;;20.60;99.90;;;;;;6339883;22;20465;-40
2023/08/17 04:48:03;;;;;;;17.47;14.70;;;20.60;99.90;;;;;;6336349;22;20183;-43
2023/08/17 04:50:29;;;;;;;15.00;13.60;;;20.60;99.90;;;;;;6338071;22;20151;-42
2023/08/17 04:52:55;;;;;;;16.33;14.60;;;20.50;99.90;;;;;;6337807;22;20381;-41
2023/08/17 04:55:20;;;;;;;15.93;14.40;;;20.40;99.90;;;;;;6336271;22;20408;-42
2023/08/17 04:57:46;;;;;;;15.20;13.70;;;20.40;99.90;;;;;;6336505;22;20187;-41
2023/08/17 05:00:13;;;;;;;17.73;16.00;;;20.40;99.90;;;;;;6335978;22;20368;-44
2023/08/17 05:02:39;;;;;;;15.87;14.27;;;20.50;99.90;;;;;;6334600;22;20187;-40
2023/08/17 05:05:06;;;;;;;15.33;12.87;;;20.50;99.90;;;;;;6335629;22;20385;-41
2023/08/17 05:07:32;;;;;;;20.77;18.67;;;20.50;99.90;;;;;;6335911;22;20840;-42
2023/08/17 05:09:58;;;;;;;18.83;14.87;;;20.60;99.90;;;;;;6339245;22;20424;-41
2023/08/17 05:12:24;;;;;;;17.07;15.20;;;20.50;99.90;;;;;;6339184;22;20750;-41
2023/08/17 05:14:49;;;;;;;17.67;15.67;;;20.40;99.90;;;;;;6340393;22;20214;-40
2023/08/17 05:17:16;;;;;;;21.87;16.83;;;20.40;99.90;;;;;;6339544;22;20190;-43
2023/08/17 05:19:41;;;;;;;16.97;15.30;;;20.40;99.90;;;;;;6339421;22;20151;-44
2023/08/17 05:22:12;;;;;;;15.90;14.33;;;20.40;99.90;;;;;;6335883;22;20388;-39
2023/08/17 05:24:38;;;;;;;15.60;13.97;;;20.50;99.90;;;;;;6338235;22;20159;-40
2023/08/17 05:27:04;;;;;;;15.13;13.63;;;20.50;99.90;;;;;;6339490;22;20362;-39
2023/08/17 05:29:31;;;;;;;15.97;14.40;;;20.60;99.90;;;;;;6339333;22;20788;-39
2023/08/17 05:31:57;;;;;;;26.20;19.30;;;20.70;99.90;;;;;;6338906;22;20404;-39
2023/08/17 05:34:23;;;;;;;15.10;13.70;;;20.70;99.90;;;;;;6337593;22;20473;-41
2023/08/17 05:36:49;;;;;;;16.33;14.73;;;20.60;99.90;;;;;;6337583;22;20381;-39
2023/08/17 05:39:14;;;;;;;14.33;13.03;;;20.70;99.90;;;;;;6335006;22;20134;-40
2023/08/17 05:41:40;;;;;;;17.73;15.87;;;20.70;99.90;;;;;;6335751;22;20147;-40
2023/08/17 05:44:09;;;;;;;18.77;15.70;;;20.80;99.90;;;;;;6335104;22;20419;-39
2023/08/17 05:46:35;;;;;;;17.23;15.43;;;20.80;99.90;;;;;;6336974;22;20277;-40
2023/08/17 05:49:01;;;;;;;14.00;12.60;;;20.80;99.90;;;;;;6336406;22;20689;-42
2023/08/17 05:51:27;;;;;;;16.07;14.37;;;20.90;99.90;;;;;;6336190;22;20127;-41
2023/08/17 05:53:53;;;;;;;22.90;20.47;;;21.00;99.90;;;;;;6338393;22;20358;-42
2023/08/17 05:56:18;;;;;;;22.77;20.37;;;21.00;99.90;;;;;;6338689;22;20143;-41
2023/08/17 05:58:44;;;;;;;23.40;21.00;;;21.10;99.90;;;;;;6339250;22;20159;-42
2023/08/17 06:01:10;;;;;;;15.37;13.87;;;20.80;99.90;;;;;;6339230;22;20223;-43
2023/08/17 06:03:37;;;;;;;15.03;13.47;;;20.70;99.90;;;;;;6337809;22;20155;-43
2023/08/17 06:06:03;;;;;;;21.03;18.93;;;20.70;99.90;;;;;;6337699;22;20364;-40
2023/08/17 06:08:29;;;;;;;23.50;20.97;;;20.80;99.90;;;;;;6338823;22;20835;-43
2023/08/17 06:10:55;;;;;;;17.90;16.10;;;20.80;99.90;;;;;;6339217;22;20472;-41
2023/08/17 06:13:21;;;;;;;17.83;16.10;;;20.70;99.90;;;;;;6338292;22;20417;-40
2023/08/17 06:15:47;;;;;;;22.20;19.77;;;20.60;99.90;;;;;;6338058;22;20186;-41
2023/08/17 06:18:12;;;;;;;19.33;15.80;;;20.70;99.90;;;;;;6332828;22;20378;-40
2023/08/17 06:20:38;;;;;;;21.40;19.23;;;20.70;99.90;;;;;;6337206;22;20147;-45
2023/08/17 06:23:04;;;;;;;20.87;18.20;;;20.70;99.90;;;;;;6338423;22;20212;-43
2023/08/17 06:25:30;;;;;;;19.77;17.20;;;20.70;99.90;;;;;;6336454;22;20331;-40
2023/08/17 06:27:55;;;;;;;20.27;18.20;;;20.80;99.90;;;;;;6336198;22;20240;-43
2023/08/17 06:30:21;;;;;;;23.33;20.93;;;20.80;99.90;;;;;;6336648;22;20354;-43
2023/08/17 06:32:47;;;;;;;20.93;18.83;;;20.90;99.90;;;;;;6338400;22;20151;-41
2023/08/17 06:35:12;;;;;;;18.07;16.03;;;20.90;99.90;;;;;;6337856;22;20537;-42
2023/08/17 06:37:38;;;;;;;19.63;17.73;;;20.90;99.90;;;;;;6337422;22;20147;-43
2023/08/17 06:40:05;;;;;;;17.70;16.00;;;20.90;99.90;;;;;;6339314;22;20530;-41
2023/08/17 06:42:31;;;;;;;16.50;14.90;;;20.90;99.90;;;;;;6336409;22;20139;-42
2023/08/17 06:44:57;;;;;;;16.70;15.00;;;20.90;99.90;;;;;;6335386;22;20380;-41
2023/08/17 06:47:23;;;;;;;15.80;14.30;;;20.90;99.90;;;;;;6335987;22;20856;-41
2023/08/17 06:49:49;;;;;;;15.53;14.00;;;21.00;99.90;;;;;;6337332;22;20182;-41
2023/08/17 06:52:14;;;;;;;18.60;16.90;;;21.10;99.90;;;;;;6337969;22;20377;-40
2023/08/17 06:54:40;;;;;;;14.07;12.87;;;21.00;99.90;;;;;;6337645;22;20142;-40
2023/08/17 06:57:05;;;;;;;14.50;13.07;;;21.10;99.90;;;;;;6337771;22;20185;-41
2023/08/17 06:59:33;;;;;;;17.40;15.70;;;21.20;99.90;;;;;;6340262;22;20143;-42
2023/08/17 07:01:59;;;;;;;16.50;15.00;;;21.30;99.90;;;;;;6337864;22;20151;-43
2023/08/17 07:04:26;;;;;;;13.40;12.17;;;21.30;99.90;;;;;;6336311;22;20393;-40
2023/08/17 07:06:52;;;;;;;14.00;12.70;;;21.30;99.90;;;;;;6336420;22;20788;-45
2023/08/17 07:09:18;;;;;;;13.97;12.57;;;21.50;99.90;;;;;;6332892;22;20496;-43
2023/08/17 07:11:44;;;;;;;18.60;16.70;;;21.50;99.90;;;;;;6335983;22;20379;-39
2023/08/17 07:14:09;;;;;;;17.30;15.57;;;21.60;34.00;;;;;;6336901;22;20666;-40
2023/08/17 07:16:35;;;;;;;16.63;15.13;;;21.50;13.20;;;;;;6337050;22;20182;-42
2023/08/17 07:19:01;;;;;;;18.10;16.40;;;21.40;95.60;;;;;;6336902;22;20151;-40
2023/08/17 07:21:27;;;;;;;14.20;12.07;;;21.20;99.90;;;;;;6338309;22;20499;-40
2023/08/17 07:23:54;;;;;;;14.77;13.23;;;21.20;99.90;;;;;;6333908;22;20397;-40
2023/08/17 07:26:20;;;;;;;13.63;12.30;;;21.40;99.90;;;;;;6337031;22;20147;-43
2023/08/17 07:28:46;;;;;;;14.77;13.47;;;21.50;99.90;;;;;;6337925;22;20425;-40
2023/08/17 07:31:12;;;;;;;11.60;10.60;;;21.60;5.60;;;;;;6337452;22;20372;-41
2023/08/17 07:33:38;;;;;;;13.47;12.30;;;21.70;1.00;;;;;;6336339;22;20364;-41
2023/08/17 07:36:04;;;;;;;9.20;8.40;;;21.70;1.00;;;;;;6336681;22;20158;-39
2023/08/17 07:38:30;;;;;;;10.10;9.10;;;21.80;29.10;;;;;;6337380;22;20784;-39
2023/08/17 07:40:56;;;;;;;13.63;12.43;;;22.00;1.00;;;;;;6335184;22;20607;-41
2023/08/17 07:43:21;;;;;;;12.50;11.40;;;22.30;1.00;;;;;;6337520;22;20530;-41
2023/08/17 07:45:56;;;;;;;10.30;9.40;;;22.40;1.00;;;;;;6337386;22;20250;-39
2023/08/17 07:48:22;;;;;;;10.70;9.80;;;22.60;1.00;;;;;;6336651;22;20241;-41
2023/08/17 07:50:51;;;;;;;11.90;10.87;;;23.00;1.00;;;;;;6338605;22;20450;-41
2023/08/17 07:53:18;;;;;;;9.40;8.50;;;23.20;99.90;;;;;;6337407;22;20548;-39
2023/08/17 07:55:44;;;;;;;11.33;10.40;;;23.30;1.00;;;;;;6336498;22;20370;-39
2023/08/17 07:58:09;;;;;;;12.70;11.67;;;23.50;1.00;;;;;;6335557;22;20571;-40
2023/08/17 08:00:35;;;;;;;11.30;10.20;;;23.60;1.00;;;;;;6337352;22;20135;-41
2023/08/17 08:03:00;;;;;;;10.83;9.83;;;23.80;99.90;;;;;;6336973;22;20218;-42
2023/08/17 08:05:26;;;;;;;12.00;10.90;;;23.90;1.00;;;;;;6337660;22;20677;-42
2023/08/17 08:07:53;;;;;;;11.73;10.53;;;23.80;1.00;;;;;;6338262;22;20175;-40
2023/08/17 08:10:18;;;;;;;10.07;9.20;;;23.80;1.00;;;;;;6334753;22;20154;-39
2023/08/17 08:12:44;;;;;;;12.03;10.93;;;23.50;1.00;;;;;;6335545;22;20377;-41
2023/08/17 08:15:10;;;;;;;10.10;9.20;;;23.70;99.90;;;;;;6335518;22;20840;-40
2023/08/17 08:17:36;;;;;;;9.00;8.30;;;23.90;99.90;;;;;;6333564;22;20151;-41
2023/08/17 08:20:02;;;;;;;10.43;9.37;;;24.10;1.00;;;;;;6330718;22;20151;-40
2023/08/17 08:22:28;;;;;;;13.57;11.07;;;24.30;1.00;;;;;;6334355;22;20460;-39
2023/08/17 08:24:54;;;;;;;8.80;8.10;;;24.40;99.90;;;;;;6335349;22;20753;-41
2023/08/17 08:27:19;;;;;;;8.90;8.20;;;24.60;99.90;;;;;;6334436;22;20228;-41
2023/08/17 08:29:45;;;;;;;11.53;10.63;;;24.90;1.00;;;;;;6333549;22;20143;-40
2023/08/17 08:32:11;;;;;;;8.80;8.10;;;24.70;99.90;;;;;;6333464;22;20530;-39
2023/08/17 08:34:36;;;;;;;10.33;9.53;;;24.90;99.90;;;;;;6334986;22;20389;-42
2023/08/17 08:37:02;;;;;;;9.57;8.73;;;24.90;99.90;;;;;;6336534;22;20523;-37
2023/08/17 08:39:28;;;;;;;9.07;8.17;;;25.20;1.00;;;;;;6335539;22;20428;-39
2023/08/17 08:41:54;;;;;;;10.57;9.77;;;25.40;1.00;;;;;;6334505;22;20132;-38
2023/08/17 08:44:20;;;;;;;8.77;8.13;;;25.60;99.90;;;;;;6333861;22;20167;-38
2023/08/17 08:46:45;;;;;;;7.60;7.00;;;25.80;75.90;;;;;;6337836;22;20381;-41
2023/08/17 08:49:12;;;;;;;9.10;8.40;;;25.70;1.00;;;;;;6338138;22;20435;-39
2023/08/17 08:51:44;;;;;;;7.83;7.13;;;26.30;99.90;;;;;;6334258;22;20139;-42
2023/08/17 08:54:14;;;;;;;8.90;8.20;;;26.70;84.00;;;;;;6334899;22;20669;-37
2023/08/17 08:56:43;;;;;;;8.37;7.57;;;26.70;99.90;;;;;;6338252;22;20622;-39
2023/08/17 08:59:09;;;;;;;7.60;7.00;;;26.80;99.90;;;;;;6334881;22;20827;-37
2023/08/17 09:01:35;;;;;;;7.53;6.90;;;26.90;99.90;;;;;;6331740;22;20389;-38
2023/08/17 09:04:01;;;;;;;10.00;9.20;;;27.30;99.90;;;;;;6335020;22;20393;-37
2023/08/17 09:06:27;;;;;;;9.73;8.67;;;27.40;1.00;;;;;;6333686;22;20127;-39
2023/08/17 09:08:53;;;;;;;9.60;8.70;;;27.50;1.00;;;;;;6332391;22;20409;-37
2023/08/17 09:11:19;;;;;;;10.00;9.20;;;27.60;1.00;;;;;;6334084;22;20463;-39
2023/08/17 09:13:45;;;;;;;8.00;7.30;;;27.60;1.00;;;;;;6332880;22;20452;-40
2023/08/17 09:16:10;;;;;;;7.73;7.13;;;28.00;1.00;;;;;;6335994;22;20151;-38
2023/08/17 09:18:36;;;;;;;8.10;7.50;;;28.50;1.00;;;;;;6335672;22;20135;-38
2023/08/17 09:21:02;;;;;;;7.87;7.37;;;28.90;1.00;;;;;;6335730;22;20437;-37
2023/08/17 09:23:27;;;;;;;7.90;7.30;;;29.40;99.90;;;;;;6336243;22;20542;-38
2023/08/17 09:25:57;;;;;;;7.07;6.57;;;29.80;99.90;;;;;;6337250;22;20156;-40
2023/08/17 09:28:24;;;;;;;7.43;6.83;;;30.30;99.90;;;;;;6337477;22;20511;-40
2023/08/17 09:31:03;;;;;;;7.00;6.50;;;30.70;99.90;;;;;;6336690;22;20668;-39
2023/08/17 09:33:31;;;;;;;7.93;7.33;;;30.60;99.90;;;;;;6333527;22;20320;-40
2023/08/17 09:35:58;;;;;;;7.83;7.23;;;30.50;99.90;;;;;;6336596;22;20423;-39
2023/08/17 09:38:23;;;;;;;7.80;7.20;;;30.70;99.90;;;;;;6334067;22;20420;-40
2023/08/17 09:40:49;;;;;;;8.10;7.50;;;30.90;85.90;;;;;;6335296;22;20382;-39
2023/08/17 09:43:16;;;;;;;8.60;7.97;;;31.00;34.40;;;;;;6336870;22;20382;-40
2023/08/17 09:45:45;;;;;;;8.00;7.40;;;30.80;20.90;;;;;;6336351;22;20427;-42
2023/08/17 09:48:11;;;;;;;8.17;7.67;;;30.70;18.90;;;;;;6337922;22;20409;-39
2023/08/17 09:50:36;;;;;;;7.27;6.70;;;30.90;19.90;;;;;;6338056;22;20428;-39
2023/08/17 09:53:03;;;;;;;8.77;8.07;;;31.00;1.90;;;;;;6338218;22;20158;-38
2023/08/17 09:55:32;;;;;;;8.57;7.70;;;31.10;1.00;;;;;;6337663;22;20154;-38
2023/08/17 09:57:58;;;;;;;7.70;7.10;;;31.30;1.00;;;;;;6337668;22;20436;-40
2023/08/17 10:00:25;;;;;;;7.20;6.70;;;31.50;1.00;;;;;;6332382;22;20336;-38
2023/08/17 10:02:51;;;;;;;9.30;8.60;;;31.80;1.00;;;;;;6305686;22;20638;-39
2023/08/17 10:05:19;;;;;;;7.43;6.83;;;31.90;1.00;;;;;;6334250;22;20352;-42
2023/08/17 10:07:50;;;;;;;8.17;7.57;;;31.90;1.00;;;;;;6336165;22;20759;-41
2023/08/17 10:10:22;;;;;;;8.43;7.80;;;32.40;1.00;;;;;;6333060;22;20405;-38
2023/08/17 10:12:55;;;;;;;8.90;8.30;;;32.70;1.00;;;;;;6333882;22;20425;-40
2023/08/17 10:15:23;;;;;;;9.03;8.33;;;32.30;1.00;;;;;;6333517;22;20332;-39
2023/08/17 10:18:42;;;;;;;8.50;7.90;;;32.20;1.00;;;;;;6305894;22;20873;-37
2023/08/17 10:21:13;;;;;;;9.00;8.40;;;31.80;1.00;;;;;;6300416;22;20360;-38
2023/08/17 10:23:39;;;;;;;8.67;8.00;;;31.00;1.00;;;;;;6306541;22;20484;-38
2023/08/17 10:26:05;;;;;;;8.63;7.93;;;30.40;1.00;;;;;;6338291;22;20387;-39
2023/08/17 10:28:31;;;;;;;9.40;8.70;;;30.60;1.00;;;;;;6338852;22;20182;-40
2023/08/17 10:30:58;;;;;;;8.57;8.00;;;31.00;1.00;;;;;;6339941;22;20443;-38
2023/08/17 10:33:24;;;;;;;8.17;7.50;;;31.60;1.00;;;;;;6338550;22;20351;-40
2023/08/17 10:35:50;;;;;;;8.50;7.90;;;31.70;1.00;;;;;;6309399;22;20325;-39
2023/08/17 10:38:17;;;;;;;9.13;8.43;;;32.30;1.00;;;;;;6338540;22;20351;-40
2023/08/17 10:40:43;;;;;;;8.60;7.90;;;32.50;1.00;;;;;;6311879;22;20151;-38
2023/08/17 10:43:09;;;;;;;9.53;8.73;;;32.30;1.00;;;;;;6335318;22;20868;-37
2023/08/17 10:45:38;;;;;;;8.27;7.67;;;32.10;1.00;;;;;;6334102;22;20372;-40
2023/08/17 10:48:09;;;;;;;7.17;6.67;;;32.60;1.00;;;;;;6336286;22;20285;-39
2023/08/17 10:50:36;;;;;;;7.33;6.77;;;33.40;1.00;;;;;;6335271;22;20348;-39
2023/08/17 10:53:20;;;;;;;7.50;7.00;;;34.10;1.00;;;;;;6334601;22;20464;-39
2023/08/17 10:55:49;;;;;;;8.23;7.63;;;34.70;1.00;;;;;;6330813;22;20461;-40
2023/08/17 10:58:14;;;;;;;8.47;7.87;;;34.50;1.00;;;;;;6332710;22;20850;-39
2023/08/17 11:00:42;;;;;;;8.10;7.50;;;34.50;1.00;;;;;;6305897;22;20367;-43
2023/08/17 11:03:18;;;;;;;8.80;8.13;;;34.30;1.00;;;;;;6335074;22;20202;-40
2023/08/17 11:05:46;;;;;;;8.00;7.40;;;33.70;1.00;;;;;;6335657;22;20355;-39
2023/08/17 11:08:33;;;;;;;8.43;7.83;;;33.70;1.00;;;;;;6335070;22;20395;-38
2023/08/17 11:11:03;;;;;;;8.37;7.67;;;33.30;1.00;;;;;;6338036;22;20355;-39
2023/08/17 11:13:34;;;;;;;8.47;7.77;;;33.20;1.00;;;;;;6336911;22;21054;-40
2023/08/17 11:16:00;;;;;;;7.60;7.00;;;33.50;1.00;;;;;;6336298;22;20679;-41
2023/08/17 11:18:26;;;;;;;7.83;7.30;;;33.90;1.00;;;;;;6333516;22;20354;-38
2023/08/17 11:20:53;;;;;;;8.07;7.57;;;34.10;1.00;;;;;;6332062;22;20706;-40
2023/08/17 11:23:19;;;;;;;7.30;6.80;;;33.40;1.00;;;;;;6332559;22;20570;-41
2023/08/17 11:25:44;;;;;;;8.53;7.93;;;33.70;1.00;;;;;;6338282;22;20400;-40
2023/08/17 11:28:10;;;;;;;7.80;7.20;;;33.80;1.00;;;;;;6335697;22;20270;-39
2023/08/17 11:30:38;;;;;;;7.70;7.20;;;33.80;1.00;;;;;;6336098;22;20527;-42
2023/08/17 11:33:05;;;;;;;8.57;7.97;;;34.10;1.00;;;;;;6335467;22;20128;-40
2023/08/17 11:35:31;;;;;;;8.80;8.10;;;33.90;1.00;;;;;;6335815;22;20355;-42
2023/08/17 11:37:56;;;;;;;7.90;7.30;;;33.60;1.00;;;;;;6335324;22;20386;-40
2023/08/17 11:40:23;;;;;;;7.63;7.03;;;33.70;1.00;;;;;;6332530;22;20154;-39
2023/08/17 11:42:49;;;;;;;7.73;7.03;;;34.30;1.00;;;;;;6334615;22;20155;-38
2023/08/17 11:45:14;;;;;;;6.50;5.90;;;35.20;1.00;;;;;;6332340;22;20817;-41
2023/08/17 11:47:43;;;;;;;7.20;6.60;;;35.80;1.00;;;;;;6334676;22;20182;-39
2023/08/17 11:50:13;;;;;;;7.27;6.70;;;36.10;1.00;;;;;;6332134;22;20147;-39
2023/08/17 11:52:39;;;;;;;8.40;7.77;;;36.40;1.00;;;;;;6333520;22;20632;-40
2023/08/17 11:55:06;;;;;;;7.60;7.10;;;36.40;1.00;;;;;;6335648;22;20381;-39
2023/08/17 11:57:32;;;;;;;7.00;6.47;;;36.20;1.00;;;;;;6332117;22;20192;-39
2023/08/17 11:59:59;;;;;;;8.27;7.60;;;35.90;1.00;;;;;;6334361;22;20449;-41
2023/08/17 12:02:26;;;;;;;8.50;7.90;;;35.40;1.00;;;;;;6335995;22;20687;-40
2023/08/17 12:04:53;;;;;;;9.23;8.63;;;34.70;1.00;;;;;;6335415;22;20466;-40
2023/08/17 12:07:19;;;;;;;8.00;7.40;;;34.00;1.00;;;;;;6337597;22;20551;-39
2023/08/17 12:09:48;;;;;;;8.30;7.60;;;33.30;1.00;;;;;;6332192;22;20380;-38
2023/08/17 12:12:22;;;;;;;8.23;7.63;;;32.70;1.00;;;;;;6334894;22;20691;-38
2023/08/17 12:14:48;;;;;;;9.17;8.47;;;32.20;1.00;;;;;;6333056;22;20403;-38
2023/08/17 12:17:18;;;;;;;9.90;9.20;;;31.50;1.00;;;;;;6334669;22;20392;-37
2023/08/17 12:19:44;;;;;;;10.10;9.40;;;30.80;1.00;;;;;;6336070;22;20475;-39
2023/08/17 12:22:10;;;;;;;8.70;8.10;;;30.00;1.00;;;;;;6336389;22;20801;-37
2023/08/17 12:24:37;;;;;;;9.37;8.40;;;29.80;1.00;;;;;;6335859;22;20494;-40
2023/08/17 12:27:03;;;;;;;8.97;8.23;;;29.70;1.00;;;;;;6336386;22;20336;-40
2023/08/17 12:29:29;;;;;;;11.53;7.80;;;29.60;1.00;;;;;;6336736;22;20480;-40
2023/08/17 12:31:57;;;;;;;8.93;8.23;;;29.50;1.00;;;;;;6334423;22;20406;-38
2023/08/17 12:34:23;;;;;;;8.83;8.13;;;29.20;1.00;;;;;;6336313;22;20375;-37
2023/08/17 12:36:49;;;;;;;8.90;8.23;;;29.10;1.00;;;;;;6336361;22;20469;-38
2023/08/17 12:39:15;;;;;;;9.00;8.20;;;29.10;1.00;;;;;;6336763;22;20426;-39
2023/08/17 12:41:41;;;;;;;8.03;7.33;;;28.90;1.00;;;;;;6336117;22;20553;-39